Новый

Карта отелей и гостиниц, располагающихся рядом с аэропортом Новый :

Новый
Хабаровск
Хабаровский край 48° 31' 41.9988" N, 135° 11' 17.9412" E
Код аэродрома ИКАО: 
UHHH
Код аэродрома RU: 
УХХХ
Координаты: 
N48.52833° E135.18832°
Превышение над уровнем моря : 
74
Основная полоса: 
05R/23L
Курс магнитный: 
053,8/233,8
Длина основной ВПП: 
4000
Ширина основной ВПП: 
60
Покрытие основной ВПП: 
Твёрдое
Освещение ВПП: 
Постоянное
Тип: 
Аэродром
Класс аэродрома: 
Международный
Принадлежность: 
ГА
Статус: 
Действующий
Сайт: 
http://www.airkhv.ru/
Страна: 
Россия
Регион: 
Хабаровский край
Город: 
Хабаровск
Дополнительная информация: 
Военный индекс: ЬХХХ/XHHH. Оператор: ОАО «Хабаровский аэропорт». Нкр.=(600)м.
Схемы аэропортов: 
Погода: 

Авиационная погода в аэропорту Новый

Регион: 
Погода METAR: 
UHHH 201430Z 31002MPS CAVOK 08/07 Q1016 R23L/090060 NOSIG RMK QFE756/1008
Время наблюдения: 
2020-09-20T14:30:00Z
Температура C: 
8.0
Точка росы: 
7.0
Направление ветра: 
310
Скорость ветра (узлы): 
4
Метеорологическая видимость: 
6.21
Условия полета: 
VFR
Аэропорт подробнее: 

Найти трансфер

С помощью этой формы Вы можете найти трансфер из аэропорта Новый в город, аэропорт или вокзал:

Карта места

Javascript is required to view this map.

Погода в аэропортах:

Авиационная погода в Ульяновске

Регион: 
Погода METAR: 
UWLW 201500Z 30007G14MPS 8000 -SHRA BKN026CB 08/05 Q1006 R02/290250 TEMPO -TSRA RMK QFE747
Время наблюдения: 
2020-09-20T15:00:00Z
Температура C: 
8.0
Точка росы: 
5.0
Направление ветра: 
300
Скорость ветра (узлы): 
14
Метеорологическая видимость: 
4.97
Явления погоды: 
-SHRA
Условия полета: 
MVFR
Аэропорт подробнее: 

Авиационная погода в Куопио

Регион: 
Погода METAR: 
EFKU 201420Z AUTO 23013KT 9999 -RA NSC 11/06 Q1007
Время наблюдения: 
2020-09-20T14:20:00Z
Температура C: 
11.0
Точка росы: 
6.0
Направление ветра: 
230
Скорость ветра (узлы): 
13
Метеорологическая видимость: 
6.21
Явления погоды: 
-RA
Условия полета: 
VFR

Авиационная погода в Орске

Регион: 
Погода METAR: 
UWOR 201500Z 24005MPS 9999 -SHRA BKN030CB 06/04 Q1004 R25/290155 NOSIG RMK QFE730/0973
Время наблюдения: 
2020-09-20T15:00:00Z
Температура C: 
6.0
Точка росы: 
4.0
Направление ветра: 
240
Скорость ветра (узлы): 
10
Метеорологическая видимость: 
6.21
Явления погоды: 
-SHRA
Условия полета: 
MVFR
Аэропорт подробнее: 

Авиационная погода в Берлевоге

Регион: 
Погода METAR: 
ENBV 181950Z 32014KT 9999 VCSH SCT016 BKN028 07/05 Q0993
Время наблюдения: 
2020-09-18T19:50:00Z
Температура C: 
7.0
Точка росы: 
5.0
Направление ветра: 
320
Скорость ветра (узлы): 
14
Метеорологическая видимость: 
6.21
Явления погоды: 
VCSH
Условия полета: 
MVFR